Time;durP1;ratioP1;P1;durP2;ratioP2;P2;SDS_P1;SDS_P2;PMS_P1;PMS_P2;Temp;Humidity;BMP_temperature;BMP_pressure;BME280_temperature;BME280_humidity;BME280_pressure;Samples;Min_cycle;Max_cycle;Signal;HPM_P1;HPM_P2
2021/12/17 00:04:38;;;;;;;5.22;2.58;;;;;;;;;;5094723;28;20032;-76
2021/12/17 00:07:04;;;;;;;;;;;;;;;;;;5095141;28;20020;-66
2021/12/17 00:09:30;;;;;;;5.72;2.80;;;;;;;;;;5094341;28;19911;-75
2021/12/17 00:11:56;;;;;;;7.82;2.80;;;;;;;;;;5094519;28;20090;-80
2021/12/17 00:14:27;;;;;;;5.20;2.80;;;;;;;;;;5093018;28;20099;-71
2021/12/17 00:16:55;;;;;;;5.85;2.88;;;;;;;;;;5094248;28;20020;-71
2021/12/17 00:49:33;;;;;;;4.60;2.55;;;;;;;;;;5094622;28;20404;-80
2021/12/17 00:52:01;;;;;;;5.25;2.78;;;;;;;;;;5091425;28;20038;-72
2021/12/17 00:54:32;;;;;;;5.93;2.58;;;;;;;;;;5092576;28;20028;-67
2021/12/17 00:57:00;;;;;;;5.38;2.72;;;;;;;;;;5086995;28;20095;-75
2021/12/17 00:59:26;;;;;;;5.50;3.42;;;;;;;;;;5072066;28;20029;-70
2021/12/17 01:01:54;;;;;;;5.07;2.90;;;;;;;;;;5071985;28;20028;-71
2021/12/17 01:04:20;;;;;;;6.55;2.80;;;;;;;;;;5072192;28;20017;-71
2021/12/17 01:06:47;;;;;;;4.43;2.63;;;;;;;;;;5072090;28;20073;-65
2021/12/17 01:09:16;;;;;;;5.07;2.70;;;;;;;;;;5072025;28;20020;-76
2021/12/17 01:11:42;;;;;;;6.80;2.60;;;;;;;;;;5071036;28;20063;-84
2021/12/17 01:14:09;;;;;;;4.50;2.50;;;;;;;;;;5073151;28;20044;-81
2021/12/17 01:16:36;;;;;;;4.90;2.45;;;;;;;;;;5071788;28;20027;-71
2021/12/17 01:19:24;;;;;;;6.15;2.38;;;;;;;;;;5083011;28;20510;-72
2021/12/17 01:24:44;;;;;;;6.00;2.78;;;;;;;;;;5092154;28;20025;-77
2021/12/17 01:35:22;;;;;;;6.43;2.75;;;;;;;;;;5076096;28;20040;-60
2021/12/17 01:43:23;;;;;;;7.63;2.58;;;;;;;;;;5058756;28;20522;-79
2021/12/17 01:45:49;;;;;;;5.78;2.42;;;;;;;;;;5072609;28;20052;-70
2021/12/17 01:48:20;;;;;;;7.22;2.53;;;;;;;;;;5092043;28;20027;-68
2021/12/17 01:56:31;;;;;;;5.30;2.40;;;;;;;;;;5092076;28;20121;-70
2021/12/17 02:01:42;;;;;;;6.20;2.90;;;;;;;;;;5091739;28;20054;-87
2021/12/17 02:04:08;;;;;;;6.82;2.60;;;;;;;;;;5092331;28;20087;-60
2021/12/17 02:06:37;;;;;;;4.90;2.28;;;;;;;;;;5091233;28;20020;-60
2021/12/17 02:09:15;;;;;;;4.95;2.38;;;;;;;;;;5077393;28;20120;-73
2021/12/17 02:28:59;;;;;;;5.43;2.47;;;;;;;;;;5071526;28;20113;-67
2021/12/17 02:33:53;;;;;;;6.57;2.90;;;;;;;;;;5071440;28;20101;-66
2021/12/17 02:36:24;;;;;;;8.85;2.20;;;;;;;;;;5073737;28;20048;-76
2021/12/17 02:38:50;;;;;;;5.68;2.63;;;;;;;;;;5071752;28;20017;-78
2021/12/17 02:46:46;;;;;;;5.68;2.42;;;;;;;;;;5075272;28;20040;-85
2021/12/17 02:49:12;;;;;;;7.07;2.35;;;;;;;;;;5074798;28;20480;-74
2021/12/17 02:51:38;;;;;;;7.03;2.60;;;;;;;;;;5075418;28;20021;-65
2021/12/17 02:54:04;;;;;;;4.47;2.40;;;;;;;;;;5075119;28;20032;-84
2021/12/17 02:56:30;;;;;;;5.57;2.20;;;;;;;;;;5077711;28;20029;-74
2021/12/17 02:58:56;;;;;;;5.43;2.25;;;;;;;;;;5073030;28;20477;-79
2021/12/17 03:01:24;;;;;;;5.00;2.05;;;;;;;;;;5074376;28;20020;-78
2021/12/17 03:03:52;;;;;;;7.22;2.40;;;;;;;;;;5073407;28;20031;-80
2021/12/17 03:06:19;;;;;;;5.70;2.30;;;;;;;;;;5074412;28;20499;-66
2021/12/17 03:08:47;;;;;;;4.28;2.03;;;;;;;;;;5074183;28;20082;-67
2021/12/17 03:11:14;;;;;;;6.97;2.42;;;;;;;;;;5074133;28;20029;-74
2021/12/17 03:13:43;;;;;;;6.63;2.20;;;;;;;;;;5073854;28;20404;-72
2021/12/17 03:16:23;;;;;;;4.28;1.95;;;;;;;;;;5073973;28;20397;-74
2021/12/17 03:19:00;;;;;;;5.18;2.03;;;;;;;;;;5074026;28;20028;-74
2021/12/17 03:24:13;;;;;;;6.13;2.42;;;;;;;;;;5074056;28;20032;-78
2021/12/17 03:26:39;;;;;;;6.38;2.42;;;;;;;;;;5094637;28;20004;-74
2021/12/17 03:29:06;;;;;;;6.22;2.47;;;;;;;;;;5095219;28;20024;-80
2021/12/17 03:31:33;;;;;;;7.63;2.47;;;;;;;;;;5095548;28;20091;-79
2021/12/17 03:34:12;;;;;;;6.32;2.63;;;;;;;;;;5093525;28;20081;-78
2021/12/17 03:36:38;;;;;;;8.60;2.95;;;;;;;;;;5094248;28;20027;-78
2021/12/17 03:39:04;;;;;;;6.35;2.22;;;;;;;;;;5094089;28;20098;-69
2021/12/17 03:41:38;;;;;;;6.53;2.55;;;;;;;;;;5094263;28;20448;-83
2021/12/17 03:44:05;;;;;;;7.43;2.70;;;;;;;;;;5093192;28;20020;-69
2021/12/17 03:46:31;;;;;;;11.85;2.72;;;;;;;;;;5094071;28;20078;-79
2021/12/17 03:48:57;;;;;;;8.70;2.42;;;;;;;;;;5094059;28;20055;-79
2021/12/17 03:51:24;;;;;;;8.13;2.70;;;;;;;;;;5093690;28;20045;-70
2021/12/17 03:53:52;;;;;;;9.82;2.65;;;;;;;;;;5093764;28;20115;-77
2021/12/17 03:56:18;;;;;;;6.05;2.40;;;;;;;;;;5092233;28;20050;-76
2021/12/17 03:58:45;;;;;;;7.07;2.38;;;;;;;;;;5073584;28;20119;-77
2021/12/17 04:01:11;;;;;;;7.70;2.50;;;;;;;;;;5073468;28;20021;-75
2021/12/17 04:03:37;;;;;;;13.75;3.08;;;;;;;;;;5071929;28;20548;-76
2021/12/17 04:06:03;;;;;;;6.72;2.30;;;;;;;;;;5073442;28;20408;-80
2021/12/17 04:08:30;;;;;;;7.72;2.78;;;;;;;;;;5073355;28;20035;-77
2021/12/17 04:11:04;;;;;;;8.52;2.83;;;;;;;;;;5073778;28;20024;-74
2021/12/17 04:13:34;;;;;;;6.43;3.10;;;;;;;;;;5073467;28;20485;-74
2021/12/17 04:16:06;;;;;;;6.93;3.05;;;;;;;;;;5072398;28;20052;-78
2021/12/17 04:18:33;;;;;;;5.88;2.88;;;;;;;;;;5073783;28;20024;-67
2021/12/17 04:21:00;;;;;;;5.28;2.55;;;;;;;;;;5073476;28;20025;-77
2021/12/17 04:23:27;;;;;;;5.68;2.65;;;;;;;;;;5073090;28;20554;-75
2021/12/17 04:25:53;;;;;;;9.68;3.08;;;;;;;;;;5072961;28;20370;-85
2021/12/17 04:28:20;;;;;;;6.35;3.20;;;;;;;;;;5073767;28;20025;-75
2021/12/17 04:30:46;;;;;;;6.05;3.20;;;;;;;;;;5074004;28;20020;-71
2021/12/17 04:33:13;;;;;;;7.22;3.38;;;;;;;;;;5073609;28;20031;-66
2021/12/17 04:35:39;;;;;;;7.95;3.63;;;;;;;;;;5073730;28;20079;-68
2021/12/17 04:38:07;;;;;;;7.00;3.35;;;;;;;;;;5073662;28;20020;-73
2021/12/17 04:40:35;;;;;;;9.00;3.60;;;;;;;;;;5072941;28;20020;-77
2021/12/17 04:45:28;;;;;;;6.25;3.28;;;;;;;;;;5073729;28;20025;-71
2021/12/17 04:58:54;;;;;;;9.43;3.60;;;;;;;;;;5074115;28;20035;-73
2021/12/17 05:01:20;;;;;;;7.93;3.67;;;;;;;;;;5072216;28;20044;-71
2021/12/17 05:03:46;;;;;;;7.88;3.47;;;;;;;;;;5073315;28;20025;-70
2021/12/17 05:06:12;;;;;;;8.63;3.53;;;;;;;;;;5074241;28;20024;-65
2021/12/17 05:08:38;;;;;;;7.75;3.15;;;;;;;;;;5076657;28;20534;-63
2021/12/17 05:11:25;;;;;;;7.00;3.33;;;;;;;;;;5075343;28;20028;-73
2021/12/17 05:19:39;;;;;;;8.90;3.15;;;;;;;;;;5071765;28;20051;-65
2021/12/17 05:22:08;;;;;;;6.03;2.92;;;;;;;;;;5070454;28;20023;-77
2021/12/17 05:24:34;;;;;;;8.48;2.58;;;;;;;;;;5071670;28;20012;-67
2021/12/17 05:27:00;;;;;;;8.45;3.55;;;;;;;;;;5071699;28;20020;-73
2021/12/17 05:29:26;;;;;;;6.78;2.97;;;;;;;;;;5071921;28;20067;-79
2021/12/17 05:31:52;;;;;;;10.73;3.35;;;;;;;;;;5072611;28;20051;-66
2021/12/17 05:34:18;;;;;;;7.28;2.85;;;;;;;;;;5072485;28;20040;-82
2021/12/17 05:36:44;;;;;;;7.05;2.95;;;;;;;;;;5072476;28;20021;-64
2021/12/17 05:39:10;;;;;;;6.22;3.03;;;;;;;;;;5072083;28;20028;-73
2021/12/17 05:41:36;;;;;;;8.52;2.85;;;;;;;;;;5071549;28;20078;-78
2021/12/17 05:44:03;;;;;;;7.95;2.80;;;;;;;;;;5071511;28;20107;-72
2021/12/17 05:46:49;;;;;;;8.80;2.97;;;;;;;;;;5071513;28;20024;-82
2021/12/17 05:49:16;;;;;;;6.75;2.95;;;;;;;;;;5071454;28;20028;-82
2021/12/17 05:51:42;;;;;;;6.28;2.53;;;;;;;;;;5071623;28;20020;-77
2021/12/17 05:54:08;;;;;;;6.47;2.65;;;;;;;;;;5070228;28;20032;-74
2021/12/17 05:56:34;;;;;;;6.63;2.90;;;;;;;;;;5086678;28;20473;-66
2021/12/17 05:59:00;;;;;;;5.78;2.58;;;;;;;;;;5072659;28;20370;-76
2021/12/17 06:01:26;;;;;;;8.95;2.72;;;;;;;;;;5071039;28;20021;-76
2021/12/17 06:03:52;;;;;;;9.23;3.65;;;;;;;;;;5069788;28;20512;-72
2021/12/17 06:06:30;;;;;;;8.95;3.38;;;;;;;;;;5071206;28;20017;-75
2021/12/17 06:08:57;;;;;;;9.00;3.05;;;;;;;;;;5071464;28;20024;-66
2021/12/17 06:11:23;;;;;;;8.15;3.15;;;;;;;;;;5075102;28;20108;-68
2021/12/17 06:13:49;;;;;;;8.45;2.80;;;;;;;;;;5090065;28;20044;-78
2021/12/17 06:16:16;;;;;;;8.82;3.25;;;;;;;;;;5089326;28;20384;-66
2021/12/17 06:18:42;;;;;;;6.43;2.95;;;;;;;;;;5090960;28;20095;-71
2021/12/17 06:21:08;;;;;;;8.35;3.25;;;;;;;;;;5095066;28;20099;-76
2021/12/17 06:23:34;;;;;;;5.95;3.28;;;;;;;;;;5094067;28;20024;-69
2021/12/17 06:26:00;;;;;;;6.68;2.85;;;;;;;;;;5093805;28;20114;-67
2021/12/17 06:28:26;;;;;;;7.45;2.65;;;;;;;;;;5095313;28;20473;-77
2021/12/17 06:30:52;;;;;;;7.95;3.25;;;;;;;;;;5094892;28;20032;-75
2021/12/17 06:33:18;;;;;;;6.45;2.80;;;;;;;;;;5094756;28;20040;-68
2021/12/17 06:35:44;;;;;;;14.35;3.80;;;;;;;;;;5094080;28;20024;-76
2021/12/17 06:38:10;;;;;;;10.80;3.20;;;;;;;;;;5094038;28;20433;-66
2021/12/17 06:40:36;;;;;;;4.82;2.58;;;;;;;;;;5093821;28;20036;-64
2021/12/17 06:43:03;;;;;;;5.78;2.50;;;;;;;;;;5095110;28;20038;-63
2021/12/17 06:48:14;;;;;;;6.72;2.70;;;;;;;;;;5095525;28;20055;-75
2021/12/17 06:59:10;;;;;;;6.15;2.42;;;;;;;;;;5074766;28;20023;-78
2021/12/17 07:05:57;;;;;;;7.13;3.00;;;;;;;;;;5073395;28;20541;-77
2021/12/17 07:17:20;;;;;;;5.82;2.28;;;;;;;;;;5076231;28;20035;-79
2021/12/17 07:20:51;;;;;;;6.15;2.22;;;;;;;;;;5088877;28;20020;-70
2021/12/17 07:28:31;;;;;;;5.55;1.88;;;;;;;;;;5086676;28;20039;-66
2021/12/17 07:33:44;;;;;;;10.93;2.95;;;;;;;;;;5093243;28;20032;-79
2021/12/17 07:36:16;;;;;;;7.50;2.10;;;;;;;;;;5092238;28;20016;-75
2021/12/17 07:38:50;;;;;;;19.90;3.08;;;;;;;;;;5091579;28;20035;-80
2021/12/17 07:41:16;;;;;;;9.15;2.95;;;;;;;;;;5092727;28;20028;-77
2021/12/17 07:43:52;;;;;;;9.20;3.15;;;;;;;;;;5093889;28;20607;-81
2021/12/17 07:46:19;;;;;;;10.60;2.67;;;;;;;;;;5094194;28;20058;-75
2021/12/17 07:48:45;;;;;;;5.63;2.28;;;;;;;;;;5094188;28;20024;-78
2021/12/17 07:51:12;;;;;;;9.80;3.13;;;;;;;;;;5092470;28;20012;-79
2021/12/17 07:53:39;;;;;;;6.18;2.85;;;;;;;;;;5093468;28;20032;-84
2021/12/17 07:56:06;;;;;;;6.90;2.58;;;;;;;;;;5093615;28;20020;-80
2021/12/17 07:58:33;;;;;;;10.05;2.58;;;;;;;;;;5093115;28;20024;-81
2021/12/17 08:00:59;;;;;;;7.60;2.10;;;;;;;;;;5093560;28;20016;-74
2021/12/17 08:03:25;;;;;;;7.13;2.33;;;;;;;;;;5091792;28;20020;-79
2021/12/17 08:05:52;;;;;;;7.35;2.25;;;;;;;;;;5093250;28;20048;-63
2021/12/17 08:08:18;;;;;;;6.25;2.33;;;;;;;;;;5091833;28;20862;-70
2021/12/17 08:10:47;;;;;;;9.27;3.00;;;;;;;;;;5093185;28;20024;-76
2021/12/17 08:13:19;;;;;;;7.60;2.50;;;;;;;;;;5093204;28;20020;-79
2021/12/17 08:15:59;;;;;;;;;;;;;;;;;;5091994;28;20024;-65
2021/12/17 08:18:50;;;;;;;9.00;2.25;;;;;;;;;;5093345;28;20411;-81
2021/12/17 08:31:26;;;;;;;8.75;2.63;;;;;;;;;;5092660;28;20028;-80
2021/12/17 08:33:53;;;;;;;9.82;2.10;;;;;;;;;;5092883;28;20028;-77
2021/12/17 08:36:19;;;;;;;7.78;2.22;;;;;;;;;;5091957;28;20028;-79
2021/12/17 08:38:46;;;;;;;6.45;2.38;;;;;;;;;;5089472;28;20028;-75
2021/12/17 08:41:13;;;;;;;6.43;2.20;;;;;;;;;;5092263;28;20093;-75
2021/12/17 08:43:41;;;;;;;6.28;1.92;;;;;;;;;;5091692;28;20031;-74
2021/12/17 08:46:07;;;;;;;5.72;2.13;;;;;;;;;;5091404;28;20601;-71
2021/12/17 08:48:34;;;;;;;5.25;2.00;;;;;;;;;;5092551;28;20024;-70
2021/12/17 08:51:00;;;;;;;4.95;1.77;;;;;;;;;;5092444;28;20070;-69
2021/12/17 08:53:26;;;;;;;6.38;2.15;;;;;;;;;;5091681;28;20466;-80
2021/12/17 08:55:53;;;;;;;8.35;2.05;;;;;;;;;;5092526;28;20024;-80
2021/12/17 08:58:19;;;;;;;7.75;2.50;;;;;;;;;;5075944;28;20499;-77
2021/12/17 09:00:46;;;;;;;6.15;2.20;;;;;;;;;;5072211;28;20499;-77
2021/12/17 09:03:12;;;;;;;5.70;1.92;;;;;;;;;;5072364;28;20020;-83
2021/12/17 09:05:39;;;;;;;5.88;2.20;;;;;;;;;;5072119;28;20032;-66
2021/12/17 09:08:06;;;;;;;5.68;1.83;;;;;;;;;;5071954;28;20492;-74
2021/12/17 09:10:33;;;;;;;6.45;2.17;;;;;;;;;;5072062;28;20031;-71
2021/12/17 09:12:59;;;;;;;8.30;2.45;;;;;;;;;;5070568;28;20025;-72
2021/12/17 09:15:25;;;;;;;7.65;2.17;;;;;;;;;;5071616;28;20078;-74
2021/12/17 09:17:52;;;;;;;6.95;2.15;;;;;;;;;;5071867;28;20020;-75
2021/12/17 09:20:18;;;;;;;6.40;2.20;;;;;;;;;;5072012;28;20058;-74
2021/12/17 09:22:44;;;;;;;6.32;1.90;;;;;;;;;;5070368;28;20500;-74
2021/12/17 09:25:10;;;;;;;6.65;2.05;;;;;;;;;;5071670;28;20029;-77
2021/12/17 09:27:37;;;;;;;4.80;1.90;;;;;;;;;;5071608;28;20013;-73
2021/12/17 09:30:06;;;;;;;6.93;2.28;;;;;;;;;;5071761;28;20104;-68
2021/12/17 09:32:33;;;;;;;4.57;1.70;;;;;;;;;;5071904;28;20021;-76
2021/12/17 09:34:59;;;;;;;12.15;2.13;;;;;;;;;;5071413;28;20029;-80
2021/12/17 09:37:25;;;;;;;5.43;1.90;;;;;;;;;;5071421;28;20092;-81
2021/12/17 09:39:51;;;;;;;6.88;1.98;;;;;;;;;;5071310;28;20052;-76
2021/12/17 09:42:17;;;;;;;4.30;2.00;;;;;;;;;;5072257;28;20030;-74
2021/12/17 09:44:43;;;;;;;6.60;1.95;;;;;;;;;;5074990;28;20044;-64
2021/12/17 09:47:09;;;;;;;6.20;2.03;;;;;;;;;;5084082;28;20020;-66
2021/12/17 09:49:36;;;;;;;4.63;1.95;;;;;;;;;;5074148;28;20063;-77
2021/12/17 09:52:02;;;;;;;5.22;1.92;;;;;;;;;;5071218;28;20023;-82
2021/12/17 09:54:28;;;;;;;5.47;2.08;;;;;;;;;;5070874;28;20028;-79
2021/12/17 09:56:54;;;;;;;5.75;1.70;;;;;;;;;;5071047;28;20024;-71
2021/12/17 09:59:20;;;;;;;5.75;1.92;;;;;;;;;;5069512;28;20152;-82
2021/12/17 10:01:47;;;;;;;4.75;1.85;;;;;;;;;;5071444;28;20024;-77
2021/12/17 10:04:15;;;;;;;5.05;1.90;;;;;;;;;;5070814;28;20054;-73
2021/12/17 10:06:41;;;;;;;5.78;1.83;;;;;;;;;;5071572;28;20469;-79
2021/12/17 10:09:07;;;;;;;8.02;2.05;;;;;;;;;;5089753;28;20059;-80
2021/12/17 10:11:34;;;;;;;4.68;1.77;;;;;;;;;;5091067;28;20028;-78
2021/12/17 10:14:19;;;;;;;5.63;2.00;;;;;;;;;;5090821;28;20105;-72
2021/12/17 10:16:46;;;;;;;8.57;2.05;;;;;;;;;;5091306;28;20059;-74
2021/12/17 10:19:12;;;;;;;6.10;1.90;;;;;;;;;;5091031;28;20070;-77
2021/12/17 10:21:45;;;;;;;4.57;1.92;;;;;;;;;;5091111;28;20027;-70
2021/12/17 10:24:20;;;;;;;6.07;1.77;;;;;;;;;;5090983;28;20077;-79
2021/12/17 10:26:46;;;;;;;6.00;2.03;;;;;;;;;;5090923;28;20032;-69
2021/12/17 10:29:20;;;;;;;5.32;2.00;;;;;;;;;;5089120;28;20044;-77
2021/12/17 10:31:55;;;;;;;5.60;1.98;;;;;;;;;;5090730;28;20020;-69
2021/12/17 10:34:21;;;;;;;5.80;1.63;;;;;;;;;;5089437;28;20499;-73
2021/12/17 10:36:47;;;;;;;6.45;1.90;;;;;;;;;;5090662;28;20048;-72
2021/12/17 10:39:24;;;;;;;4.10;1.55;;;;;;;;;;5090614;28;20020;-76
2021/12/17 10:41:50;;;;;;;6.68;1.92;;;;;;;;;;5087257;28;20081;-79
2021/12/17 10:44:16;;;;;;;7.30;1.85;;;;;;;;;;5090310;28;20032;-69
2021/12/17 10:47:05;;;;;;;6.00;1.85;;;;;;;;;;5090286;28;20012;-72
2021/12/17 10:49:31;;;;;;;5.53;1.75;;;;;;;;;;5088717;28;20095;-80
2021/12/17 10:52:08;;;;;;;4.80;1.60;;;;;;;;;;5090759;28;20028;-67
2021/12/17 10:54:34;;;;;;;3.22;1.27;;;;;;;;;;5089394;28;20035;-70
2021/12/17 10:57:00;;;;;;;3.35;1.40;;;;;;;;;;5085205;28;20016;-71
2021/12/17 10:59:28;;;;;;;4.88;1.60;;;;;;;;;;5070273;28;20078;-69
2021/12/17 11:01:59;;;;;;;3.65;1.40;;;;;;;;;;5070346;28;20134;-63
2021/12/17 11:04:35;;;;;;;3.88;1.58;;;;;;;;;;5070431;28;20070;-70
2021/12/17 11:07:01;;;;;;;4.45;1.60;;;;;;;;;;5072446;28;20046;-75
2021/12/17 11:09:36;;;;;;;4.47;1.65;;;;;;;;;;5073885;28;20516;-68
2021/12/17 11:12:07;;;;;;;4.03;1.80;;;;;;;;;;5074189;28;20040;-71
2021/12/17 11:14:34;;;;;;;4.75;1.60;;;;;;;;;;5073780;28;20049;-79
2021/12/17 11:17:00;;;;;;;4.20;1.95;;;;;;;;;;5077704;28;20035;-71
2021/12/17 11:19:26;;;;;;;4.65;1.42;;;;;;;;;;5093934;28;20032;-62
2021/12/17 11:21:52;;;;;;;5.43;1.90;;;;;;;;;;5093887;28;20016;-62
2021/12/17 11:24:19;;;;;;;5.40;1.67;;;;;;;;;;5093732;28;20028;-76
2021/12/17 11:26:45;;;;;;;5.55;2.03;;;;;;;;;;5093883;28;20098;-67
2021/12/17 11:29:11;;;;;;;4.43;1.60;;;;;;;;;;5092338;28;20038;-77
2021/12/17 11:31:37;;;;;;;4.82;1.85;;;;;;;;;;5092558;28;20024;-62
2021/12/17 11:34:05;;;;;;;7.85;1.83;;;;;;;;;;5093549;28;20043;-71
2021/12/17 11:36:31;;;;;;;6.63;1.77;;;;;;;;;;5093689;28;20028;-68
2021/12/17 11:39:02;;;;;;;4.30;1.60;;;;;;;;;;5093731;28;20426;-76
2021/12/17 11:41:54;;;;;;;3.17;1.42;;;;;;;;;;5093554;28;20043;-71
2021/12/17 11:44:27;;;;;;;4.55;1.50;;;;;;;;;;5077566;28;20057;-70
2021/12/17 11:47:04;;;;;;;6.15;2.00;;;;;;;;;;5093773;28;20048;-68
2021/12/17 11:49:35;;;;;;;5.63;1.70;;;;;;;;;;5093525;28;20020;-76
2021/12/17 11:52:01;;;;;;;4.00;1.48;;;;;;;;;;5093515;28;20055;-65
2021/12/17 11:54:35;;;;;;;10.88;2.53;;;;;;;;;;5093384;28;20601;-67
2021/12/17 11:57:05;;;;;;;4.97;1.90;;;;;;;;;;5087805;28;20477;-65
2021/12/17 11:59:33;;;;;;;3.85;1.50;;;;;;;;;;5073177;28;20390;-66
2021/12/17 12:02:01;;;;;;;4.30;1.60;;;;;;;;;;5073102;28;20074;-74
2021/12/17 12:04:33;;;;;;;5.22;1.70;;;;;;;;;;5072844;28;20051;-63
2021/12/17 12:07:08;;;;;;;13.77;2.30;;;;;;;;;;5072920;28;20431;-76
2021/12/17 12:09:55;;;;;;;4.45;1.70;;;;;;;;;;5073219;28;20031;-76
2021/12/17 12:12:21;;;;;;;6.97;1.63;;;;;;;;;;5071522;28;20047;-77
2021/12/17 12:14:47;;;;;;;5.38;1.90;;;;;;;;;;5071613;28;20094;-66
2021/12/17 12:17:13;;;;;;;4.57;1.55;;;;;;;;;;5072714;28;20045;-78
2021/12/17 12:19:49;;;;;;;8.70;1.80;;;;;;;;;;5072814;28;20124;-69
2021/12/17 12:22:29;;;;;;;4.95;1.70;;;;;;;;;;5072889;28;20021;-71
2021/12/17 12:25:24;;;;;;;4.60;1.73;;;;;;;;;;5085266;28;20040;-64
2021/12/17 12:27:50;;;;;;;6.30;1.40;;;;;;;;;;5073822;28;20032;-67
2021/12/17 12:30:16;;;;;;;15.73;1.75;;;;;;;;;;5091813;28;20766;-71
2021/12/17 12:33:05;;;;;;;6.40;1.63;;;;;;;;;;5093124;28;20047;-77
2021/12/17 12:35:31;;;;;;;3.90;1.65;;;;;;;;;;5087342;28;20044;-66
2021/12/17 12:38:15;;;;;;;10.07;2.00;;;;;;;;;;5090775;28;20028;-83
2021/12/17 12:40:45;;;;;;;6.15;1.85;;;;;;;;;;5089454;28;20028;-68
2021/12/17 12:43:27;;;;;;;5.85;1.92;;;;;;;;;;5085198;28;20020;-68
2021/12/17 12:45:53;;;;;;;6.90;1.80;;;;;;;;;;5092512;28;20419;-84
2021/12/17 12:48:32;;;;;;;8.23;1.70;;;;;;;;;;5093715;28;20047;-68
2021/12/17 12:51:34;;;;;;;6.63;1.90;;;;;;;;;;5093476;28;20634;-84
2021/12/17 12:54:07;;;;;;;4.70;1.60;;;;;;;;;;5051208;28;20047;-85
2021/12/17 12:56:33;;;;;;;5.57;1.63;;;;;;;;;;5082929;28;20027;-79
2021/12/17 12:59:00;;;;;;;7.20;1.80;;;;;;;;;;5093664;28;20120;-80
2021/12/17 13:01:26;;;;;;;5.78;1.77;;;;;;;;;;5079338;28;20024;-71
2021/12/17 13:03:52;;;;;;;6.60;1.80;;;;;;;;;;5092937;28;20016;-82
2021/12/17 13:06:19;;;;;;;5.18;1.60;;;;;;;;;;5088179;28;20024;-82
2021/12/17 13:08:52;;;;;;;5.00;1.70;;;;;;;;;;5091990;28;20380;-76
2021/12/17 13:11:19;;;;;;;6.22;1.73;;;;;;;;;;5092069;28;20073;-76
2021/12/17 13:13:54;;;;;;;3.35;1.40;;;;;;;;;;5092202;28;20048;-83
2021/12/17 13:16:41;;;;;;;6.82;1.70;;;;;;;;;;5092216;28;20099;-81
2021/12/17 13:24:25;;;;;;;5.00;1.73;;;;;;;;;;5091839;28;20067;-69
2021/12/17 13:26:59;;;;;;;6.68;1.70;;;;;;;;;;5091746;28;20024;-64
2021/12/17 13:29:30;;;;;;;4.05;1.30;;;;;;;;;;5088768;28;20020;-79
2021/12/17 13:31:57;;;;;;;5.82;1.45;;;;;;;;;;5075553;28;20095;-67
2021/12/17 13:34:23;;;;;;;8.63;2.08;;;;;;;;;;5091392;28;20036;-78
2021/12/17 13:37:10;;;;;;;6.00;1.55;;;;;;;;;;5086102;28;20603;-75
2021/12/17 13:39:44;;;;;;;5.32;1.85;;;;;;;;;;5089423;28;20024;-71
2021/12/17 13:42:15;;;;;;;4.57;1.50;;;;;;;;;;5091136;28;20070;-79
2021/12/17 13:44:43;;;;;;;6.53;1.55;;;;;;;;;;5091954;28;20132;-67
2021/12/17 13:47:09;;;;;;;5.30;1.75;;;;;;;;;;5091110;28;20024;-77
2021/12/17 13:49:36;;;;;;;7.75;2.20;;;;;;;;;;5091442;28;20031;-66
2021/12/17 13:52:02;;;;;;;12.18;1.88;;;;;;;;;;5091394;28;20522;-70
2021/12/17 13:54:29;;;;;;;6.28;2.08;;;;;;;;;;5091287;28;20032;-79
2021/12/17 13:56:56;;;;;;;6.00;1.83;;;;;;;;;;5086763;28;20019;-68
2021/12/17 13:59:33;;;;;;;5.43;1.52;;;;;;;;;;5086262;28;20081;-73
2021/12/17 14:01:59;;;;;;;6.95;1.77;;;;;;;;;;5090349;28;20466;-66
2021/12/17 14:04:25;;;;;;;5.00;1.67;;;;;;;;;;5080146;28;20032;-61
2021/12/17 14:06:53;;;;;;;9.23;2.08;;;;;;;;;;5087771;28;20525;-69
2021/12/17 14:09:20;;;;;;;6.68;1.90;;;;;;;;;;5085268;28;20066;-68
2021/12/17 14:11:46;;;;;;;5.57;1.77;;;;;;;;;;5085453;28;20032;-71
2021/12/17 14:14:25;;;;;;;8.75;1.50;;;;;;;;;;5089015;28;20048;-71
2021/12/17 14:17:02;;;;;;;3.67;1.42;;;;;;;;;;5089503;28;20020;-62
2021/12/17 14:19:42;;;;;;;9.35;2.13;;;;;;;;;;5085889;28;20020;-79
2021/12/17 14:22:20;;;;;;;4.38;1.50;;;;;;;;;;5087497;28;20040;-67
2021/12/17 14:24:47;;;;;;;7.03;1.92;;;;;;;;;;5088566;28;20816;-75
2021/12/17 14:27:13;;;;;;;7.40;1.58;;;;;;;;;;5090715;28;20086;-73
2021/12/17 14:29:39;;;;;;;6.88;2.17;;;;;;;;;;5090458;28;20368;-67
2021/12/17 14:32:05;;;;;;;6.28;1.65;;;;;;;;;;5090499;28;20024;-77
2021/12/17 14:34:40;;;;;;;6.28;1.67;;;;;;;;;;5089998;28;20043;-70
2021/12/17 14:37:06;;;;;;;5.57;1.88;;;;;;;;;;5089168;28;20032;-64
2021/12/17 14:39:35;;;;;;;6.00;1.90;;;;;;;;;;5088835;28;20031;-77
2021/12/17 14:42:04;;;;;;;5.20;1.70;;;;;;;;;;5091739;28;20110;-76
2021/12/17 14:47:47;;;;;;;5.78;2.10;;;;;;;;;;5094553;28;20097;-74
2021/12/17 15:03:40;;;;;;;9.57;1.70;;;;;;;;;;5075048;28;20025;-77
2021/12/17 15:06:07;;;;;;;7.97;1.85;;;;;;;;;;5074827;28;20066;-62
2021/12/17 15:08:33;;;;;;;4.95;1.40;;;;;;;;;;5090786;28;20024;-68
2021/12/17 15:11:02;;;;;;;17.48;2.10;;;;;;;;;;5093626;28;20024;-63
2021/12/17 15:13:28;;;;;;;8.05;2.50;;;;;;;;;;5093574;28;20024;-61
2021/12/17 15:15:57;;;;;;;12.05;2.15;;;;;;;;;;5094553;28;20150;-64
2021/12/17 15:18:23;;;;;;;8.05;2.15;;;;;;;;;;5094692;28;20039;-78
2021/12/17 15:20:51;;;;;;;7.25;2.40;;;;;;;;;;5094479;28;20065;-63
2021/12/17 15:23:17;;;;;;;6.20;2.15;;;;;;;;;;5094028;28;20433;-61
2021/12/17 15:25:43;;;;;;;5.43;1.98;;;;;;;;;;5092177;28;20028;-73
2021/12/17 15:28:11;;;;;;;6.68;1.95;;;;;;;;;;5073798;28;20031;-61
2021/12/17 15:30:44;;;;;;;5.18;1.67;;;;;;;;;;5072525;28;20017;-61
2021/12/17 15:33:11;;;;;;;6.45;1.92;;;;;;;;;;5072582;28;20484;-61
2021/12/17 15:35:37;;;;;;;4.72;2.00;;;;;;;;;;5074054;28;20065;-61
2021/12/17 15:38:07;;;;;;;5.38;1.83;;;;;;;;;;5073882;28;20020;-62
2021/12/17 15:40:34;;;;;;;7.25;1.98;;;;;;;;;;5073711;28;20568;-61
2021/12/17 15:43:02;;;;;;;7.85;2.30;;;;;;;;;;5076479;28;20117;-77
2021/12/17 15:45:33;;;;;;;4.78;2.20;;;;;;;;;;5073452;28;20036;-78
2021/12/17 15:47:59;;;;;;;5.68;2.05;;;;;;;;;;5073262;28;20037;-81
2021/12/17 15:50:26;;;;;;;6.30;1.85;;;;;;;;;;5073635;28;20025;-62
2021/12/17 15:52:52;;;;;;;6.72;2.00;;;;;;;;;;5072869;28;20015;-62
2021/12/17 15:55:22;;;;;;;5.95;1.80;;;;;;;;;;5073462;28;20081;-62
2021/12/17 15:57:48;;;;;;;5.75;1.85;;;;;;;;;;5075949;28;20020;-76
2021/12/17 16:00:15;;;;;;;5.13;1.80;;;;;;;;;;5073791;28;20020;-64
2021/12/17 16:02:42;;;;;;;4.72;1.70;;;;;;;;;;5073179;28;20025;-61
2021/12/17 16:05:09;;;;;;;5.45;2.35;;;;;;;;;;5071719;28;20103;-61
2021/12/17 16:07:36;;;;;;;5.40;2.25;;;;;;;;;;5073423;28;20397;-62
2021/12/17 16:10:54;;;;;;;4.97;2.10;;;;;;;;;;5073278;28;20044;-62
2021/12/17 16:21:00;;;;;;;5.78;2.03;;;;;;;;;;5093197;28;20039;-70
2021/12/17 16:23:26;;;;;;;5.35;1.95;;;;;;;;;;5093017;28;20048;-61
2021/12/17 16:25:52;;;;;;;6.13;1.83;;;;;;;;;;5093116;28;20070;-61
2021/12/17 16:28:18;;;;;;;5.72;2.10;;;;;;;;;;5093288;28;20107;-62
2021/12/17 16:30:44;;;;;;;5.13;1.88;;;;;;;;;;5093077;28;20108;-81
2021/12/17 16:33:10;;;;;;;7.55;2.20;;;;;;;;;;5093034;28;20121;-72
2021/12/17 16:35:37;;;;;;;4.57;1.95;;;;;;;;;;5086911;28;20039;-62
2021/12/17 16:38:03;;;;;;;5.47;1.98;;;;;;;;;;5091494;28;20024;-62
2021/12/17 16:40:29;;;;;;;9.00;2.17;;;;;;;;;;5092521;28;20008;-62
2021/12/17 16:42:57;;;;;;;8.23;2.30;;;;;;;;;;5092711;28;20020;-61
2021/12/17 16:45:29;;;;;;;6.22;2.00;;;;;;;;;;5092946;28;20479;-63
2021/12/17 16:47:56;;;;;;;5.65;1.75;;;;;;;;;;5092922;28;20016;-70
2021/12/17 16:50:26;;;;;;;5.28;2.00;;;;;;;;;;5092548;28;20107;-69
2021/12/17 16:52:53;;;;;;;5.25;2.10;;;;;;;;;;5077187;28;20582;-62
2021/12/17 16:55:20;;;;;;;6.32;1.95;;;;;;;;;;5070875;28;20031;-62
2021/12/17 16:57:46;;;;;;;4.35;1.98;;;;;;;;;;5071608;28;20107;-62
2021/12/17 17:00:12;;;;;;;4.85;1.92;;;;;;;;;;5070675;28;20021;-76
2021/12/17 17:02:39;;;;;;;5.47;2.13;;;;;;;;;;5072338;28;20052;-62
2021/12/17 17:05:05;;;;;;;5.97;2.05;;;;;;;;;;5071101;28;20052;-66
2021/12/17 17:07:31;;;;;;;5.20;2.08;;;;;;;;;;5072175;28;20066;-61
2021/12/17 17:09:57;;;;;;;5.68;1.92;;;;;;;;;;5070777;28;20111;-61
2021/12/17 17:12:26;;;;;;;8.15;2.10;;;;;;;;;;5071987;28;20111;-80
2021/12/17 17:14:52;;;;;;;5.70;2.00;;;;;;;;;;5071868;28;20118;-67
2021/12/17 17:17:18;;;;;;;5.28;2.03;;;;;;;;;;5072110;28;20024;-68
2021/12/17 17:19:45;;;;;;;5.13;2.20;;;;;;;;;;5085282;28;20024;-77
2021/12/17 17:22:14;;;;;;;6.07;1.73;;;;;;;;;;5088926;28;20027;-71
2021/12/17 17:24:40;;;;;;;8.93;2.08;;;;;;;;;;5091445;28;20020;-69
2021/12/17 17:27:06;;;;;;;6.15;2.08;;;;;;;;;;5088074;28;20031;-72
2021/12/17 17:29:32;;;;;;;8.00;1.98;;;;;;;;;;5091147;28;20028;-62
2021/12/17 17:31:59;;;;;;;6.07;2.10;;;;;;;;;;5089610;28;20024;-62
2021/12/17 17:34:27;;;;;;;8.73;2.45;;;;;;;;;;5090992;28;20519;-85
2021/12/17 17:36:53;;;;;;;7.43;2.60;;;;;;;;;;5092830;28;20035;-80
2021/12/17 17:39:19;;;;;;;11.48;2.50;;;;;;;;;;5087286;28;20032;-65
2021/12/17 17:41:45;;;;;;;8.63;2.65;;;;;;;;;;5090958;28;20479;-62
2021/12/17 17:44:12;;;;;;;6.97;2.53;;;;;;;;;;5089821;28;20028;-69
2021/12/17 17:46:38;;;;;;;7.50;2.72;;;;;;;;;;5091712;28;20020;-61
2021/12/17 17:49:05;;;;;;;6.60;2.10;;;;;;;;;;5086592;28;20372;-61
2021/12/17 17:51:31;;;;;;;11.15;2.38;;;;;;;;;;5090646;28;20017;-68